x

Northern Hawaii Two - 252nm Ne Of Honolulu, Hi (51100) Weather Station

1:50pm - Sat 25th Oct 2014 All times are HST. -10 hours from GMT.

  • Wind
    16mph
  • Air Temp 78°f
  • Sea Pressure 1016.7mb
  • Northern Hawaii Two - 252nm Ne Of Honolulu, Hi
  • Northern Hawaii Two - 252nm Ne Of Honolulu, Hi

More Historic Weather Station data

Upgrade to MSW Pro to gain access to the past 30 days of data for over 8000 Wavebouys and Weather Stations around the globe.

Join Pro

Comparision Forecast

View Surf forecast
   
Sat 10/25 1:50pm  -   -   -  16
mph
1016.7mb - 78f
12:50pm  -   -   -  18
mph
- - -
10:50am  -   -   -  18 22 mph 1018.6mb 80f 78f
9:50am  -   -   -  20 25 mph 1018.9mb 80f 78f
8:50am  -   -   -  22 25 mph 1018.5mb 80f 78f
6:50am  -   -   -  22 29 mph 1017.6mb 80f 78f
4:50am  -   -   -  25 29 mph 1016.4mb 80f 78f
2:50am  -   -   -  18 22 mph 1016.9mb 80f 73f
1:50am  -   -   -  22
mph
- 80f 74f
12:50am  -   -   -  20 25 mph 1017.7mb 80f 76f
Fri 10/24 10:50pm  -   -   -  22 29 mph 1018.3mb 80f 76f
8:50pm  -   -   -  22 27 mph 1018.6mb 80f 76f
7:50pm  -   -   -  25 27 mph 1018.5mb 80f 76f
5:50pm  -   -   -  18 22 mph 1017.4mb 80f 78f
4:50pm  -   -   -  16
mph
- - 78f
3:50pm  -   -   -  16 18 mph 1016.8mb 80f 79f
2:50pm  -   -   -  16
mph
1016.8mb - 79f
1:50pm  -   -   -  16 18 mph 1016.9mb 80f 79f
10:50am  -   -   -  18 20 mph 1018.7mb 80f 78f
9:50am  -   -   -  16 18 mph 1018.9mb 80f 79f
8:50am 6ft 11s 6s 13 18 mph 1018.7mb 80f 78f
7:50am  -   -   -  20 22 mph 1018.4mb 80f 76f
6:50am  -   -   -  13 20 mph 1018mb 80f 76f
5:50am  -   -   -  13 22 mph 1017.4mb 80f 75f
4:50am  -   -   -  13 16 mph 1016.9mb 80f 78f
3:50am  -   -   -  13 16 mph 1016.7mb 80f 77f
1:50am  -   -   -  16 18 mph 1017.2mb 80f 77f
12:50am  -   -   -  13 18 mph 1017.6mb 80f 78f
Thu 10/23 11:50pm  -   -   -  18 20 mph 1017.8mb 80f 78f
10:50pm  -   -   -  9 11 mph 1018.7mb 80f 76f
9:50pm  -   -   -  20
mph
1018.8mb 80f 77f
7:50pm  -   -   -  20
mph
1018.5mb 80f 76f
6:50pm  -   -   -  25 29 mph 1017.6mb 80f 77f
4:50pm  -   -   -  18 22 mph 1017.2mb 80f 75f
2:50pm  -   -   -  16 20 mph 1017mb 80f 74f
1:50pm  -   -   -  18 22 mph 1017mb 80f 75f
12:50pm  -   -   -  16 22 mph 1017.6mb 80f 76f
10:50am  -   -   -  16 18 mph 1018.9mb 80f 79f
9:50am  -   -   -  16 18 mph 1018.9mb 80f 79f
8:50am  -   -   -  16 18 mph 1018.6mb 80f 79f
7:50am  -   -   -  16 18 mph 1018.1mb 80f 78f
6:50am  -   -   -  16 18 mph 1017.2mb 80f 78f
5:50am  -   -   -  16 18 mph 1016.6mb 80f 78f
3:50am  -   -   -  13 16 mph 1016.1mb 80f 78f
2:50am  -   -   -  13 16 mph 1016.4mb 80f 78f
12:50am  -   -   -  16
mph
1017mb - 79f
Wed 10/22 10:50pm  -   -   -  16
mph
1017.8mb - 79f
9:50pm  -   -   -  16 18 mph 1018.1mb 80f 79f
7:50pm  -   -   -  16 18 mph 1017.8mb 80f 79f
6:50pm  -   -   -  16 18 mph 1017.4mb 80f 79f
5:50pm  -   -   -  7 9 mph 1016.9mb 80f 75f
4:50pm  -   -   -  11 13 mph 1016.3mb 80f 77f
1:50pm  -   -   -  9 11 mph 1016.3mb 80f 78f
12:50pm  -   -   -  13 16 mph 1016.8mb 80f 79f
11:50am  -   -   -  13 16 mph 1017.4mb 80f 79f
10:50am  -   -   -  13 16 mph 1018mb 80f 79f
9:50am  -   -   -  13
mph
- - -
7:50am  -   -   -  18 20 mph 1017.6mb 80f 79f
6:50am  -   -   -  18 20 mph 1017.1mb 80f 77f
5:50am  -   -   -  9
mph
- - 78f
4:50am  -   -   -  11 13 mph 1016.4mb 80f 78f
1:50am  -   -   -  11
mph
1016.7mb - 78f